Shokyu Maru — JG5288 — position and weather

sailwx.info

Track history (hours):
 
Tides and Currents Weather Stations Pressure Air Temp Water Temp Dewpoint Dewpoint Depression Visibility Wind Speed Wind Dir Waves Ship Positions

Shokyu Maru

Last reported at 2017-Mar-28 13:30 UTC. Time now 2017-Mar-28 13:44 UTC.
Position N 35°36' E 139°55'.

Length 91 m; draft 5.2 m.

Type: Ship. MMSI: 431000253.

Date/timePositionNaut miles runAvg speedWind from/ knotsBaromVisibWave heightAir tempDewpointWater temp
2017-Mar-28 13:30N 35°36' E 139°55'0 0.1
2017-Mar-28 12:33N 35°36' E 139°55'0 0.0
2017-Mar-28 11:15N 35°36' E 139°55'0 0.0
2017-Mar-28 10:33N 35°36' E 139°55'0 0.0
2017-Mar-28 09:33N 35°36' E 139°55'0 0.1
2017-Mar-28 08:33N 35°36' E 139°55'5 4.6
2017-Mar-28 07:33N 35°32' E 139°52'5 5.2
2017-Mar-28 06:32N 35°31' E 139°46'0 0.0
2017-Mar-28 05:32N 35°31' E 139°46'0 0.0
2017-Mar-28 04:32N 35°31' E 139°46'0 0.0
2017-Mar-28 03:32N 35°31' E 139°46'0 0.0
2017-Mar-28 02:32N 35°31' E 139°46'1 1.0
2017-Mar-28 01:33N 35°30' E 139°45'3 2.6
2017-Mar-28 00:33N 35°28' E 139°47'7 7.0
2017-Mar-27 23:33N 35°32' E 139°54'4 3.9
2017-Mar-27 22:32N 35°34' E 139°58'7 0.4
2017-Mar-27 04:17N 35°36' E 140°06'710.0
2017-Mar-27 03:33N 35°32' E 139°58'5 5.0
2017-Mar-27 02:33N 35°37' E 139°58'1 0.2
2017-Mar-26 21:17N 35°38' E 139°59'4 1.9
2017-Mar-26 19:11N 35°36' E 139°55'0 0.0
2017-Mar-26 12:32N 35°36' E 139°55'0 0.0
2017-Mar-26 11:26N 35°36' E 139°55'0 0.1
2017-Mar-26 10:32N 35°36' E 139°55'3 3.0
2017-Mar-26 09:32N 35°33' E 139°56'6 0.9
2017-Mar-26 03:20N 35°29' E 140°01'7 9.6
2017-Mar-26 02:34N 35°36' E 139°59'2 0.3
2017-Mar-25 21:18N 35°38' E 139°59'4 1.9
2017-Mar-25 19:18N 35°35' E 139°55'0 0.1
2017-Mar-25 18:33N 35°35' E 139°55'0 0.0
2017-Mar-25 17:27N 35°35' E 139°55'0 0.0
2017-Mar-25 16:27N 35°35' E 139°55'0 0.0
2017-Mar-25 15:18N 35°35' E 139°55'0 0.0
2017-Mar-25 14:33N 35°35' E 139°55'0 0.0
2017-Mar-25 13:33N 35°35' E 139°55'6 5.9
2017-Mar-25 12:33N 35°31' E 139°50'3 3.3
2017-Mar-25 11:33N 35°31' E 139°46'0 0.0
2017-Mar-25 10:33N 35°31' E 139°46'0 0.0
2017-Mar-25 09:33N 35°31' E 139°46'0 0.0
2017-Mar-25 08:33N 35°31' E 139°46'0 0.0
2017-Mar-25 07:33N 35°31' E 139°46'0 0.0
2017-Mar-25 06:33N 35°31' E 139°46'4 4.2
2017-Mar-25 05:34N 35°29' E 139°42'9 9.1
2017-Mar-25 04:33N 35°31' E 139°53'5 4.8
2017-Mar-25 03:33N 35°35' E 139°56'4 0.7
2017-Mar-24 21:30N 35°39' E 139°58'5 2.1
2017-Mar-24 19:19N 35°35' E 139°55'0 0.0
2017-Mar-24 18:33N 35°35' E 139°55'0 0.0
2017-Mar-24 17:33N 35°35' E 139°55'0 0.0
2017-Mar-24 16:15N 35°35' E 139°55'1 0.2
2017-Mar-24 12:33N 35°34' E 139°56'7 1.3
2017-Mar-24 07:31N 35°30' E 140°02'7 7.2
2017-Mar-24 06:33N 35°34' E 139°55'0 0.0
2017-Mar-24 04:04N 35°34' E 139°55'3 5.3
2017-Mar-24 03:33N 35°36' E 139°57'3 0.6
2017-Mar-23 21:30N 35°39' E 139°58'5 4.8
2017-Mar-23 20:32N 35°35' E 139°55'0 0.0
2017-Mar-23 19:32N 35°35' E 139°55'0 0.0
2017-Mar-23 18:29N 35°35' E 139°55'0 0.0
2017-Mar-23 17:32N 35°35' E 139°55'0 0.0
2017-Mar-23 16:29N 35°35' E 139°55'0 0.0
2017-Mar-23 14:32N 35°35' E 139°55'0 0.0
2017-Mar-23 11:32N 35°35' E 139°55'0 0.0
2017-Mar-23 10:32N 35°35' E 139°55'6 6.0
2017-Mar-23 09:32N 35°30' E 139°59'2 1.1
2017-Mar-23 07:26N 35°29' E 140°01'4 0.6
2017-Mar-23 01:33N 35°31' E 139°57'3 3.4
2017-Mar-23 00:33N 35°34' E 139°55'0 0.0
2017-Mar-22 23:30N 35°34' E 139°55'0 0.0
2017-Mar-22 22:34N 35°34' E 139°55'0 0.0
2017-Mar-22 21:21N 35°34' E 139°55'0 0.0
2017-Mar-22 20:30N 35°34' E 139°55'0 0.0
2017-Mar-22 19:30N 35°34' E 139°55'0 0.0
2017-Mar-22 18:33N 35°34' E 139°55'0 0.0
2017-Mar-22 17:27N 35°34' E 139°55'0 0.0
2017-Mar-22 16:10N 35°34' E 139°55'0 0.0
2017-Mar-22 15:30N 35°34' E 139°55'0 0.0
2017-Mar-22 07:24N 35°34' E 139°55'4 0.6
2017-Mar-22 00:33N 35°37' E 139°58'4 1.7
2017-Mar-21 22:07N 35°34' E 139°54'0 0.0
2017-Mar-21 21:20N 35°34' E 139°54'0 0.0
2017-Mar-21 20:33N 35°34' E 139°54'0 0.0
2017-Mar-21 19:26N 35°34' E 139°54'0 0.0
2017-Mar-21 18:27N 35°34' E 139°54'0 0.0
2017-Mar-21 17:31N 35°34' E 139°54'0 0.0
2017-Mar-21 16:21N 35°34' E 139°54'0 0.0
2017-Mar-21 12:33N 35°34' E 139°54'7 6.9
2017-Mar-21 11:31N 35°31' E 139°46'0 0.0
2017-Mar-21 10:31N 35°31' E 139°46'0 0.0
2017-Mar-21 09:31N 35°31' E 139°46'0 0.0
2017-Mar-21 08:31N 35°31' E 139°46'0 0.0
2017-Mar-21 07:28N 35°31' E 139°46'0 0.0
2017-Mar-21 06:31N 35°31' E 139°46'1 0.6
2017-Mar-21 05:33N 35°31' E 139°46'3 3.1
2017-Mar-21 04:34N 35°28' E 139°46'1010.2
2017-Mar-21 03:33N 35°34' E 139°55'5 0.9
2017-Mar-20 21:28N 35°39' E 139°58'4 4.5
2017-Mar-20 20:31N 35°36' E 139°55'0 0.0
2017-Mar-20 19:25N 35°36' E 139°55'0 0.0
2017-Mar-20 18:22N 35°36' E 139°55'0 0.0
2017-Mar-20 17:25N 35°36' E 139°55'0 0.0
2017-Mar-20 15:28N 35°36' E 139°55'0 0.0
2017-Mar-20 11:10N 35°36' E 139°55'4 6.5
2017-Mar-20 10:33N 35°33' E 139°58'2 0.5
2017-Mar-20 05:32N 35°31' E 140°00'5 5.5
2017-Mar-20 04:33N 35°34' E 139°55'4 3.7
2017-Mar-20 03:33N 35°36' E 139°58'3 0.4
2017-Mar-19 21:28N 35°39' E 139°58'5 5.2
2017-Mar-19 20:33N 35°35' E 139°55'0 0.0
2017-Mar-19 19:33N 35°35' E 139°55'0 0.0
2017-Mar-19 18:33N 35°35' E 139°55'0 0.0
2017-Mar-19 17:28N 35°35' E 139°55'0 0.0
2017-Mar-19 15:19N 35°35' E 139°55'0 0.1
2017-Mar-19 14:18N 35°35' E 139°55'7 9.4
2017-Mar-19 13:32N 35°30' E 140°02'1 0.3
2017-Mar-19 08:33N 35°31' E 140°00'1 1.2
2017-Mar-19 07:24N 35°32' E 139°59'0 0.0
2017-Mar-19 06:33N 35°32' E 139°59'0 0.0
2017-Mar-19 05:30N 35°32' E 139°59'0 0.1
2017-Mar-19 04:33N 35°32' E 139°59'2 1.8
2017-Mar-19 03:33N 35°33' E 139°59'6 1.0
2017-Mar-18 21:33N 35°39' E 139°58'5 3.9
2017-Mar-18 20:14N 35°35' E 139°55'0 0.0
2017-Mar-18 19:26N 35°35' E 139°55'0 0.0
2017-Mar-18 18:32N 35°35' E 139°55'0 0.0
2017-Mar-18 17:29N 35°35' E 139°55'0 0.0
2017-Mar-18 16:32N 35°35' E 139°55'0 0.0
2017-Mar-18 15:32N 35°35' E 139°55'0 0.0
2017-Mar-18 14:11N 35°35' E 139°55'0 0.0
2017-Mar-18 13:32N 35°35' E 139°55'  
Track history (hours):
 
Tides and Currents Weather Stations Pressure Air Temp Water Temp Dewpoint Dewpoint Depression Visibility Wind Speed Wind Dir Waves Ship Positions

Shokyu Maru

Last reported at 2017-Mar-28 13:30 UTC. Time now 2017-Mar-28 13:44 UTC.
Position N 35°36' E 139°55'.

Length 91 m; draft 5.2 m.

Type: Ship. MMSI: 431000253.

Date/timePositionNaut miles runAvg speedWind from/ knotsBaromVisibWave heightAir tempDewpointWater temp
2017-Mar-28 13:30N 35°36' E 139°55'0 0.1
2017-Mar-28 12:33N 35°36' E 139°55'0 0.0
2017-Mar-28 11:15N 35°36' E 139°55'0 0.0
2017-Mar-28 10:33N 35°36' E 139°55'0 0.0
2017-Mar-28 09:33N 35°36' E 139°55'0 0.1
2017-Mar-28 08:33N 35°36' E 139°55'5 4.6
2017-Mar-28 07:33N 35°32' E 139°52'5 5.2
2017-Mar-28 06:32N 35°31' E 139°46'0 0.0
2017-Mar-28 05:32N 35°31' E 139°46'0 0.0
2017-Mar-28 04:32N 35°31' E 139°46'0 0.0
2017-Mar-28 03:32N 35°31' E 139°46'0 0.0
2017-Mar-28 02:32N 35°31' E 139°46'1 1.0
2017-Mar-28 01:33N 35°30' E 139°45'3 2.6
2017-Mar-28 00:33N 35°28' E 139°47'7 7.0
2017-Mar-27 23:33N 35°32' E 139°54'4 3.9
2017-Mar-27 22:32N 35°34' E 139°58'7 0.4
2017-Mar-27 04:17N 35°36' E 140°06'710.0
2017-Mar-27 03:33N 35°32' E 139°58'5 5.0
2017-Mar-27 02:33N 35°37' E 139°58'1 0.2
2017-Mar-26 21:17N 35°38' E 139°59'4 1.9
2017-Mar-26 19:11N 35°36' E 139°55'0 0.0
2017-Mar-26 12:32N 35°36' E 139°55'0 0.0
2017-Mar-26 11:26N 35°36' E 139°55'0 0.1
2017-Mar-26 10:32N 35°36' E 139°55'3 3.0
2017-Mar-26 09:32N 35°33' E 139°56'6 0.9
2017-Mar-26 03:20N 35°29' E 140°01'7 9.6
2017-Mar-26 02:34N 35°36' E 139°59'2 0.3
2017-Mar-25 21:18N 35°38' E 139°59'4 1.9
2017-Mar-25 19:18N 35°35' E 139°55'0 0.1
2017-Mar-25 18:33N 35°35' E 139°55'0 0.0
2017-Mar-25 17:27N 35°35' E 139°55'0 0.0
2017-Mar-25 16:27N 35°35' E 139°55'0 0.0
2017-Mar-25 15:18N 35°35' E 139°55'0 0.0
2017-Mar-25 14:33N 35°35' E 139°55'0 0.0
2017-Mar-25 13:33N 35°35' E 139°55'6 5.9
2017-Mar-25 12:33N 35°31' E 139°50'3 3.3
2017-Mar-25 11:33N 35°31' E 139°46'0 0.0
2017-Mar-25 10:33N 35°31' E 139°46'0 0.0
2017-Mar-25 09:33N 35°31' E 139°46'0 0.0
2017-Mar-25 08:33N 35°31' E 139°46'0 0.0
2017-Mar-25 07:33N 35°31' E 139°46'0 0.0
2017-Mar-25 06:33N 35°31' E 139°46'4 4.2
2017-Mar-25 05:34N 35°29' E 139°42'9 9.1
2017-Mar-25 04:33N 35°31' E 139°53'5 4.8
2017-Mar-25 03:33N 35°35' E 139°56'4 0.7
2017-Mar-24 21:30N 35°39' E 139°58'5 2.1
2017-Mar-24 19:19N 35°35' E 139°55'0 0.0
2017-Mar-24 18:33N 35°35' E 139°55'0 0.0
2017-Mar-24 17:33N 35°35' E 139°55'0 0.0
2017-Mar-24 16:15N 35°35' E 139°55'1 0.2
2017-Mar-24 12:33N 35°34' E 139°56'7 1.3
2017-Mar-24 07:31N 35°30' E 140°02'7 7.2
2017-Mar-24 06:33N 35°34' E 139°55'0 0.0
2017-Mar-24 04:04N 35°34' E 139°55'3 5.3
2017-Mar-24 03:33N 35°36' E 139°57'3 0.6
2017-Mar-23 21:30N 35°39' E 139°58'5 4.8
2017-Mar-23 20:32N 35°35' E 139°55'0 0.0
2017-Mar-23 19:32N 35°35' E 139°55'0 0.0
2017-Mar-23 18:29N 35°35' E 139°55'0 0.0
2017-Mar-23 17:32N 35°35' E 139°55'0 0.0
2017-Mar-23 16:29N 35°35' E 139°55'0 0.0
2017-Mar-23 14:32N 35°35' E 139°55'0 0.0
2017-Mar-23 11:32N 35°35' E 139°55'0 0.0
2017-Mar-23 10:32N 35°35' E 139°55'6 6.0
2017-Mar-23 09:32N 35°30' E 139°59'2 1.1
2017-Mar-23 07:26N 35°29' E 140°01'4 0.6
2017-Mar-23 01:33N 35°31' E 139°57'3 3.4
2017-Mar-23 00:33N 35°34' E 139°55'0 0.0
2017-Mar-22 23:30N 35°34' E 139°55'0 0.0
2017-Mar-22 22:34N 35°34' E 139°55'0 0.0
2017-Mar-22 21:21N 35°34' E 139°55'0 0.0
2017-Mar-22 20:30N 35°34' E 139°55'0 0.0
2017-Mar-22 19:30N 35°34' E 139°55'0 0.0
2017-Mar-22 18:33N 35°34' E 139°55'0 0.0
2017-Mar-22 17:27N 35°34' E 139°55'0 0.0
2017-Mar-22 16:10N 35°34' E 139°55'0 0.0
2017-Mar-22 15:30N 35°34' E 139°55'0 0.0
2017-Mar-22 07:24N 35°34' E 139°55'4 0.6
2017-Mar-22 00:33N 35°37' E 139°58'4 1.7
2017-Mar-21 22:07N 35°34' E 139°54'0 0.0
2017-Mar-21 21:20N 35°34' E 139°54'0 0.0
2017-Mar-21 20:33N 35°34' E 139°54'0 0.0
2017-Mar-21 19:26N 35°34' E 139°54'0 0.0
2017-Mar-21 18:27N 35°34' E 139°54'0 0.0
2017-Mar-21 17:31N 35°34' E 139°54'0 0.0
2017-Mar-21 16:21N 35°34' E 139°54'0 0.0
2017-Mar-21 12:33N 35°34' E 139°54'7 6.9
2017-Mar-21 11:31N 35°31' E 139°46'0 0.0
2017-Mar-21 10:31N 35°31' E 139°46'0 0.0
2017-Mar-21 09:31N 35°31' E 139°46'0 0.0
2017-Mar-21 08:31N 35°31' E 139°46'0 0.0
2017-Mar-21 07:28N 35°31' E 139°46'0 0.0
2017-Mar-21 06:31N 35°31' E 139°46'1 0.6
2017-Mar-21 05:33N 35°31' E 139°46'3 3.1
2017-Mar-21 04:34N 35°28' E 139°46'1010.2
2017-Mar-21 03:33N 35°34' E 139°55'5 0.9
2017-Mar-20 21:28N 35°39' E 139°58'4 4.5
2017-Mar-20 20:31N 35°36' E 139°55'0 0.0
2017-Mar-20 19:25N 35°36' E 139°55'0 0.0
2017-Mar-20 18:22N 35°36' E 139°55'0 0.0
2017-Mar-20 17:25N 35°36' E 139°55'0 0.0
2017-Mar-20 15:28N 35°36' E 139°55'0 0.0
2017-Mar-20 11:10N 35°36' E 139°55'4 6.5
2017-Mar-20 10:33N 35°33' E 139°58'2 0.5
2017-Mar-20 05:32N 35°31' E 140°00'5 5.5
2017-Mar-20 04:33N 35°34' E 139°55'4 3.7
2017-Mar-20 03:33N 35°36' E 139°58'3 0.4
2017-Mar-19 21:28N 35°39' E 139°58'5 5.2
2017-Mar-19 20:33N 35°35' E 139°55'0 0.0
2017-Mar-19 19:33N 35°35' E 139°55'0 0.0
2017-Mar-19 18:33N 35°35' E 139°55'0 0.0
2017-Mar-19 17:28N 35°35' E 139°55'0 0.0
2017-Mar-19 15:19N 35°35' E 139°55'0 0.1
2017-Mar-19 14:18N 35°35' E 139°55'7 9.4
2017-Mar-19 13:32N 35°30' E 140°02'1 0.3
2017-Mar-19 08:33N 35°31' E 140°00'1 1.2
2017-Mar-19 07:24N 35°32' E 139°59'0 0.0
2017-Mar-19 06:33N 35°32' E 139°59'0 0.0
2017-Mar-19 05:30N 35°32' E 139°59'0 0.1
2017-Mar-19 04:33N 35°32' E 139°59'2 1.8
2017-Mar-19 03:33N 35°33' E 139°59'6 1.0
2017-Mar-18 21:33N 35°39' E 139°58'5 3.9
2017-Mar-18 20:14N 35°35' E 139°55'0 0.0
2017-Mar-18 19:26N 35°35' E 139°55'0 0.0
2017-Mar-18 18:32N 35°35' E 139°55'0 0.0
2017-Mar-18 17:29N 35°35' E 139°55'0 0.0
2017-Mar-18 16:32N 35°35' E 139°55'0 0.0
2017-Mar-18 15:32N 35°35' E 139°55'0 0.0
2017-Mar-18 14:11N 35°35' E 139°55'0 0.0
2017-Mar-18 13:32N 35°35' E 139°55'  

Dump ship's entire track history